Archival Weather

Chicago O'Hare International

Chicago, Illinois (KORD)

Report from: Wednesday, February 16, 2022 10:27 PM CST
Current time: Saturday, February 4, 2023 10:20 PM CST

Current weather
Weather history
Weather forecast

Present weatherHeavy rain, mist
Temperature8.9°C (48.0°F)
Wind chill7.5°C (45.4°F)
Dew point7.2°C (45.0°F)
Winds 5 kts (2.6 m/s, 5.8 mph) West (270°)
Visibility0.8 mi. (1.2 km)
Clouds Scattered clouds 700 ft. (213 m)
Ceiling: Broken clouds 1,500 ft. (457 m)
Overcast 3,600 ft. (1,097 m)
Altimeter29.78 in.Hg (1008 mB)
Precipitiation0.15 in. (4 mm)
Relative humidity89 %
Density altitude-422 ft. (-129 m)
Remarks Automated weather observing station with precipitation discriminator
Flight conditions Low Instrument Meteorological Conditions
Raw dataKORD 170427Z 27005KT 3/4SM R10L/5500VP6000FT +RA BR SCT007 BKN015 OVC036 09/07 A2978 RMK AO2 P0015 T00890072
An unhandled exception has occurred. See browser dev tools for details. Reload 🗙